createdAt,value
2023-03-24T00:00:46.815Z,99743.31
2023-03-24T00:03:17.393Z,99744.22
2023-03-24T00:05:50.418Z,99738.03
2023-03-24T00:08:17.997Z,99729.19
2023-03-24T00:10:47.711Z,99733.63
2023-03-24T00:13:16.228Z,99729.13
2023-03-24T00:15:45.383Z,99724.69
2023-03-24T00:18:13.034Z,99716.75
2023-03-24T00:20:42.186Z,99702.59
2023-03-24T00:23:11.104Z,99701.69
2023-03-24T00:25:40.149Z,99691.97
2023-03-24T00:28:10.062Z,99688.44
2023-03-24T00:30:37.754Z,99680.47
2023-03-24T00:33:05.523Z,99677.81
2023-03-24T00:35:33.141Z,99678.69
2023-03-24T00:38:00.764Z,99684.88
2023-03-24T00:40:29.711Z,99676.00
2023-03-24T00:42:59.146Z,99673.31
2023-03-24T00:45:26.766Z,99665.31
2023-03-24T00:47:54.771Z,99651.13
2023-03-24T00:50:26.504Z,99637.72
2023-03-24T00:52:58.223Z,99649.09
2023-03-24T00:55:28.454Z,99642.81
2023-03-24T00:57:57.571Z,99635.72
2023-03-24T01:00:27.937Z,99637.41
2023-03-24T01:02:57.550Z,99627.63
2023-03-24T01:05:27.988Z,99630.22
2023-03-24T01:07:57.263Z,99624.84
2023-03-24T01:10:27.064Z,99621.19
2023-03-24T01:12:59.080Z,99621.06
2023-03-24T01:15:33.312Z,99625.38
2023-03-24T01:18:02.183Z,99619.97
2023-03-24T01:20:32.936Z,99624.31
2023-03-24T01:23:00.737Z,99620.66
2023-03-24T01:25:29.259Z,99619.75
2023-03-24T01:27:58.425Z,99614.44
2023-03-24T01:30:28.352Z,99622.38
2023-03-24T01:32:56.957Z,99614.50
2023-03-24T01:35:28.533Z,99619.84
2023-03-24T01:37:58.910Z,99612.03
2023-03-24T01:40:29.813Z,99608.59
2023-03-24T01:42:59.255Z,99602.50
2023-03-24T01:45:56.700Z,99607.91
2023-03-24T01:48:29.498Z,99602.66
2023-03-24T01:51:02.524Z,99594.78
2023-03-24T01:53:33.256Z,99593.13
2023-03-24T01:56:03.063Z,99583.47
2023-03-24T01:58:39.589Z,99581.72
2023-03-24T02:01:17.651Z,99572.03
2023-03-24T02:04:04.305Z,99568.59
2023-03-24T02:06:34.182Z,99558.03
2023-03-24T02:09:03.787Z,99558.13
2023-03-24T02:11:34.725Z,99553.78
2023-03-24T02:14:08.734Z,99548.50
2023-03-24T02:16:53.697Z,99546.78
2023-03-24T02:20:02.761Z,99538.06
2023-03-24T02:22:59.092Z,99546.09
2023-03-24T02:25:55.776Z,99539.94
2023-03-24T02:28:35.097Z,99530.25
2023-03-24T02:31:29.091Z,99530.25
2023-03-24T02:34:30.950Z,99525.81
2023-03-24T02:37:29.855Z,99513.50
2023-03-24T02:40:23.604Z,99514.38
2023-03-24T02:43:11.641Z,99509.09
2023-03-24T02:45:46.526Z,99507.38
2023-03-24T02:48:23.593Z,99505.59
2023-03-24T02:51:00.031Z,99498.47
2023-03-24T02:53:34.164Z,99484.31
2023-03-24T02:56:27.375Z,99481.63
2023-03-24T02:59:03.995Z,99470.09
2023-03-24T03:01:41.329Z,99470.94
2023-03-24T03:04:26.418Z,99458.56
2023-03-24T03:06:59.877Z,99463.88
2023-03-24T03:09:29.927Z,99462.03
2023-03-24T03:12:01.759Z,99462.00
2023-03-24T03:14:34.034Z,99437.16
2023-03-24T03:17:06.955Z,99440.56
2023-03-24T03:19:41.074Z,99435.16
2023-03-24T03:22:14.142Z,99435.00
2023-03-24T03:24:44.885Z,99424.31
2023-03-24T03:27:19.050Z,99434.00
2023-03-24T03:29:54.298Z,99433.06
2023-03-24T03:32:28.340Z,99440.97
2023-03-24T03:35:01.501Z,99446.25
2023-03-24T03:37:35.550Z,99434.72
2023-03-24T03:40:09.148Z,99432.84
2023-03-24T03:42:40.551Z,99441.69
2023-03-24T03:45:10.033Z,99434.56
2023-03-24T03:47:39.374Z,99428.28
2023-03-24T03:50:09.840Z,99413.25
2023-03-24T03:52:41.564Z,99409.69
2023-03-24T03:55:11.518Z,99422.84
2023-03-24T03:57:42.160Z,99416.59
2023-03-24T04:00:17.314Z,99424.50
2023-03-24T04:03:34.461Z,99424.44
2023-03-24T04:06:08.959Z,99419.13
2023-03-24T04:08:48.956Z,99420.91
2023-03-24T04:11:55.989Z,99397.88
2023-03-24T04:15:04.035Z,99400.44
2023-03-24T04:17:48.224Z,99398.50
2023-03-24T04:20:38.280Z,99393.94
2023-03-24T04:23:18.347Z,99392.97
2023-03-24T04:25:58.573Z,99396.34
2023-03-24T04:28:34.660Z,99398.88
2023-03-24T04:31:08.272Z,99403.22
2023-03-24T04:33:43.822Z,99404.06
2023-03-24T04:36:19.126Z,99401.34
2023-03-24T04:39:13.160Z,99404.84
2023-03-24T04:41:48.378Z,99392.44
2023-03-24T04:44:25.667Z,99394.19
2023-03-24T04:47:15.459Z,99402.13
2023-03-24T04:50:01.857Z,99385.28
2023-03-24T04:52:30.835Z,99379.91
2023-03-24T04:54:59.649Z,99379.88
2023-03-24T04:57:27.605Z,99378.91
2023-03-24T05:00:08.619Z,99368.28
2023-03-24T05:02:38.427Z,99362.97
2023-03-24T05:05:13.219Z,99348.78
2023-03-24T05:07:45.008Z,99345.19
2023-03-24T05:10:16.241Z,99342.53
2023-03-24T05:12:50.414Z,99347.84
2023-03-24T05:15:21.010Z,99336.28
2023-03-24T05:17:54.792Z,99331.84
2023-03-24T05:20:26.393Z,99335.31
2023-03-24T05:22:55.805Z,99337.13
2023-03-24T05:25:23.677Z,99333.59
2023-03-24T05:27:51.949Z,99332.66
2023-03-24T05:30:25.462Z,99330.91
2023-03-24T05:33:02.490Z,99337.13
2023-03-24T05:35:30.693Z,99323.88
2023-03-24T05:37:58.502Z,99334.56
2023-03-24T05:40:26.763Z,99331.06
2023-03-24T05:42:58.522Z,99340.00
2023-03-24T05:45:31.536Z,99332.06
2023-03-24T05:48:02.456Z,99327.66
2023-03-24T05:50:47.438Z,99324.13
2023-03-24T05:53:15.400Z,99315.22
2023-03-24T05:56:03.074Z,99317.84
2023-03-24T05:58:49.350Z,99316.88
2023-03-24T06:01:18.306Z,99303.44
2023-03-24T06:03:49.193Z,99305.97
2023-03-24T06:06:18.607Z,99305.84
2023-03-24T06:08:46.575Z,99303.06
2023-03-24T06:11:16.358Z,99303.91
2023-03-24T06:13:59.088Z,99304.69
2023-03-24T06:16:27.829Z,99296.69
2023-03-24T06:19:02.094Z,99295.72
2023-03-24T06:21:56.001Z,99286.03
2023-03-24T06:24:30.247Z,99280.66
2023-03-24T06:27:08.793Z,99266.50
2023-03-24T06:29:37.377Z,99269.16
2023-03-24T06:32:06.384Z,99265.59
2023-03-24T06:34:42.439Z,99266.38
2023-03-24T06:37:18.047Z,99259.06
2023-03-24T06:39:46.684Z,99266.97
2023-03-24T06:42:18.528Z,99264.22
2023-03-24T06:44:46.756Z,99277.44
2023-03-24T06:47:15.125Z,99275.59
2023-03-24T06:49:44.337Z,99273.81
2023-03-24T06:52:12.240Z,99272.88
2023-03-24T06:54:42.250Z,99279.94
2023-03-24T06:57:10.885Z,99269.22
2023-03-24T06:59:58.153Z,99277.97
2023-03-24T07:02:36.237Z,99266.25
2023-03-24T07:05:09.037Z,99279.38
2023-03-24T07:10:31.806Z,99273.06
2023-03-24T07:13:01.435Z,99262.38
2023-03-24T07:15:29.276Z,99253.50
2023-03-24T07:17:57.624Z,99257.88
2023-03-24T07:20:41.492Z,99257.75
2023-03-24T07:23:13.302Z,99261.28
2023-03-24T07:25:42.141Z,99264.66
2023-03-24T07:28:28.670Z,99265.50
2023-03-24T07:30:57.090Z,99260.06
2023-03-24T07:33:25.194Z,99254.69
2023-03-24T07:35:57.436Z,99266.22
2023-03-24T07:38:27.549Z,99259.06
2023-03-24T07:41:01.111Z,99250.84
2023-03-24T07:43:31.856Z,99259.69
2023-03-24T07:46:09.599Z,99265.69
2023-03-24T07:48:38.628Z,99282.38
2023-03-24T07:51:08.014Z,99265.31
2023-03-24T07:53:47.792Z,99267.06
2023-03-24T07:56:24.257Z,99267.84
2023-03-24T07:58:57.074Z,99270.28
2023-03-24T08:01:36.703Z,99267.53
2023-03-24T08:04:07.405Z,99277.09
2023-03-24T08:07:09.034Z,99272.38
2023-03-24T08:09:37.036Z,99289.88
2023-03-24T08:12:13.787Z,99287.03
2023-03-24T08:14:47.636Z,99293.97
2023-03-24T08:17:15.473Z,99293.72
2023-03-24T08:19:58.194Z,99296.16
2023-03-24T08:22:28.590Z,99290.69
2023-03-24T08:24:56.531Z,99287.81
2023-03-24T08:27:24.229Z,99296.63
2023-03-24T08:29:52.155Z,99295.66
2023-03-24T08:32:20.145Z,99302.69
2023-03-24T08:34:48.981Z,99312.50
2023-03-24T08:37:16.545Z,99327.69
2023-03-24T08:39:45.638Z,99325.88
2023-03-24T08:42:13.263Z,99339.22
2023-03-24T08:44:41.830Z,99341.06
2023-03-24T08:47:09.662Z,99362.47
2023-03-24T08:49:38.196Z,99358.13
2023-03-24T08:52:06.348Z,99359.06
2023-03-24T08:54:33.930Z,99372.38
2023-03-24T08:57:02.847Z,99365.25
2023-03-24T08:59:30.531Z,99402.66
2023-03-24T09:01:58.154Z,99386.13
2023-03-24T09:10:11.661Z,99369.13
2023-03-24T09:12:40.216Z,99382.66
2023-03-24T09:15:11.729Z,99387.06
2023-03-24T09:17:41.351Z,99400.69
2023-03-24T09:20:11.822Z,99387.28
2023-03-24T09:22:41.099Z,99390.78
2023-03-24T09:25:14.192Z,99403.56
2023-03-24T09:27:42.117Z,99400.91
2023-03-24T09:30:11.592Z,99390.22
2023-03-24T09:32:39.489Z,99400.00
2023-03-24T09:35:08.604Z,99410.47
2023-03-24T09:37:38.470Z,99397.84
2023-03-24T09:40:07.880Z,99415.25
2023-03-24T09:42:41.249Z,99415.84
2023-03-24T09:45:14.376Z,99411.13
2023-03-24T09:47:47.307Z,99409.03
2023-03-24T09:50:23.022Z,99400.97
2023-03-24T09:52:55.320Z,99406.00
2023-03-24T09:55:25.954Z,99404.97
2023-03-24T09:57:59.443Z,99401.88
2023-03-24T10:00:29.571Z,99398.09
2023-03-24T10:03:01.761Z,99413.00
2023-03-24T10:05:37.214Z,99395.22
2023-03-24T10:08:15.727Z,99403.09
2023-03-24T10:10:56.283Z,99408.31
2023-03-24T10:13:33.761Z,99410.63
2023-03-24T10:16:08.408Z,99414.03
2023-03-24T10:18:41.502Z,99414.84
2023-03-24T10:21:18.333Z,99428.13
2023-03-24T10:23:56.743Z,99414.72
2023-03-24T10:26:33.852Z,99429.88
2023-03-24T10:29:18.434Z,99425.41
2023-03-24T10:31:51.968Z,99428.00
2023-03-24T10:34:20.409Z,99428.69
2023-03-24T10:37:30.076Z,99424.03
2023-03-24T10:39:57.797Z,99418.75
2023-03-24T10:42:27.680Z,99420.56
2023-03-24T10:44:56.007Z,99421.59
2023-03-24T10:47:27.931Z,99424.34
2023-03-24T10:49:59.340Z,99410.97
2023-03-24T10:52:29.517Z,99416.66
2023-03-24T10:54:59.744Z,99425.06
2023-03-24T10:57:29.092Z,99424.09
2023-03-24T10:59:59.741Z,99438.56
2023-03-24T11:02:30.643Z,99437.06
2023-03-24T11:05:00.152Z,99450.69
2023-03-24T11:07:34.792Z,99452.69
2023-03-24T11:10:08.274Z,99452.84
2023-03-24T11:12:38.855Z,99455.59
2023-03-24T11:15:21.780Z,99456.66
2023-03-24T11:17:54.919Z,99449.56
2023-03-24T11:20:28.630Z,99447.22
2023-03-24T11:23:00.711Z,99442.00
2023-03-24T11:25:34.165Z,99458.06
2023-03-24T11:28:09.647Z,99464.38
2023-03-24T11:30:46.803Z,99468.13
2023-03-24T11:33:20.883Z,99468.19
2023-03-24T11:36:10.608Z,99460.22
2023-03-24T11:39:00.256Z,99453.91
2023-03-24T11:41:29.247Z,99459.03
2023-03-24T11:44:16.889Z,99461.56
2023-03-24T11:46:47.505Z,99441.81
2023-03-24T11:49:19.349Z,99431.19
2023-03-24T11:51:52.910Z,99446.53
2023-03-24T11:54:27.366Z,99431.53
2023-03-24T11:57:00.812Z,99443.97
2023-03-24T11:59:35.329Z,99448.41
2023-03-24T12:02:15.038Z,99452.91
2023-03-24T12:04:51.947Z,99456.44
2023-03-24T12:07:47.757Z,99462.63
2023-03-24T12:10:26.332Z,99475.00
2023-03-24T12:13:05.345Z,99459.84
2023-03-24T12:15:57.293Z,99474.78
2023-03-24T12:18:41.618Z,99457.59
2023-03-24T12:21:20.867Z,99476.03
2023-03-24T12:23:57.344Z,99487.47
2023-03-24T12:26:28.476Z,99477.53
2023-03-24T12:28:59.804Z,99484.59
2023-03-24T12:31:44.509Z,99482.03
2023-03-24T12:34:29.034Z,99487.38
2023-03-24T12:37:04.805Z,99483.06
2023-03-24T12:39:35.972Z,99494.75
2023-03-24T12:42:11.354Z,99485.97
2023-03-24T12:45:04.021Z,99501.94
2023-03-24T12:47:47.678Z,99512.75
2023-03-24T12:50:31.233Z,99559.28
2023-03-24T12:53:13.585Z,99571.94
2023-03-24T12:55:44.735Z,99569.50
2023-03-24T12:58:19.615Z,99562.56
2023-03-24T13:00:58.888Z,99585.03
2023-03-24T13:03:33.064Z,99582.47
2023-03-24T13:06:17.243Z,99560.63
2023-03-24T13:08:51.695Z,99561.69
2023-03-24T13:11:32.882Z,99545.97
2023-03-24T13:14:04.246Z,99525.78
2023-03-24T13:16:37.458Z,99511.63
2023-03-24T13:19:13.911Z,99492.53
2023-03-24T13:21:42.542Z,99467.13
2023-03-24T13:24:14.813Z,99459.00
2023-03-24T13:26:50.166Z,99444.66
2023-03-24T13:29:41.967Z,99440.19
2023-03-24T13:32:26.682Z,99460.28
2023-03-24T13:34:58.833Z,99467.66
2023-03-24T13:37:29.832Z,99470.50
2023-03-24T13:40:00.945Z,99460.31
2023-03-24T13:42:32.708Z,99455.59
2023-03-24T13:45:03.737Z,99458.97
2023-03-24T13:47:50.736Z,99453.13
2023-03-24T13:50:18.912Z,99474.34
2023-03-24T13:52:49.982Z,99488.69
2023-03-24T13:55:24.409Z,99490.44
2023-03-24T13:57:57.895Z,99482.44
2023-03-24T14:00:28.136Z,99473.63
2023-03-24T14:02:58.263Z,99475.72
2023-03-24T14:05:33.315Z,99484.41
2023-03-24T14:08:18.274Z,99479.28
2023-03-24T14:10:48.301Z,99475.00
2023-03-24T14:13:36.667Z,99483.19
2023-03-24T14:16:43.989Z,99476.84
2023-03-24T14:19:22.119Z,99471.28
2023-03-24T14:21:58.073Z,99475.00
2023-03-24T14:24:29.393Z,99469.09
2023-03-24T14:26:57.726Z,99470.94
2023-03-24T14:29:43.212Z,99477.78
2023-03-24T14:32:20.682Z,99480.53
2023-03-24T14:34:55.900Z,99485.31
2023-03-24T14:37:24.810Z,99498.06
2023-03-24T14:39:57.402Z,99496.78
2023-03-24T14:42:45.296Z,99499.34
2023-03-24T14:45:55.679Z,99491.69
2023-03-24T14:48:32.442Z,99501.22
2023-03-24T14:51:04.587Z,99511.97
2023-03-24T14:53:37.538Z,99516.53
2023-03-24T14:56:07.946Z,99504.19
2023-03-24T14:58:39.221Z,99503.06
2023-03-24T15:01:08.297Z,99498.47
2023-03-24T15:03:45.954Z,99491.06
2023-03-24T15:06:15.858Z,99492.56
2023-03-24T15:08:50.575Z,99493.03
2023-03-24T15:11:21.639Z,99503.91
2023-03-24T15:13:50.856Z,99495.06
2023-03-24T15:16:22.046Z,99507.28
2023-03-24T15:19:01.361Z,99502.84
2023-03-24T15:21:34.234Z,99500.31
2023-03-24T15:24:02.877Z,99502.75
2023-03-24T15:26:32.563Z,99503.41
2023-03-24T15:29:02.552Z,99500.31
2023-03-24T15:31:33.782Z,99497.16
2023-03-24T15:34:09.431Z,99505.19
2023-03-24T15:36:45.675Z,99493.69
2023-03-24T15:39:20.918Z,99491.84
2023-03-24T15:41:52.307Z,99491.53
2023-03-24T15:44:21.552Z,99501.03
2023-03-24T15:46:50.151Z,99490.59
2023-03-24T15:49:24.500Z,99485.50
2023-03-24T15:51:55.252Z,99484.91
2023-03-24T15:54:25.703Z,99475.00
2023-03-24T15:57:12.042Z,99479.41
2023-03-24T15:59:45.727Z,99481.09
2023-03-24T16:02:32.189Z,99486.81
2023-03-24T16:07:37.678Z,99484.28
2023-03-24T16:10:08.731Z,99475.16
2023-03-24T16:12:37.725Z,99480.75
2023-03-24T16:15:06.936Z,99483.66
2023-03-24T16:17:34.687Z,99482.91
2023-03-24T16:20:08.834Z,99487.72
2023-03-24T16:22:36.613Z,99485.50
2023-03-24T16:25:04.917Z,99497.66
2023-03-24T16:27:32.549Z,99496.22
2023-03-24T16:30:00.950Z,99504.53
2023-03-24T16:32:28.649Z,99494.06
2023-03-24T16:34:56.555Z,99495.31
2023-03-24T16:37:25.514Z,99495.88
2023-03-24T16:39:53.175Z,99501.59
2023-03-24T16:42:20.881Z,99510.16
2023-03-24T16:44:48.565Z,99507.00
2023-03-24T16:47:16.202Z,99509.22
2023-03-24T16:49:43.896Z,99510.56
2023-03-24T16:52:13.003Z,99512.69
2023-03-24T16:54:41.977Z,99514.84
2023-03-24T16:57:09.622Z,99508.94
2023-03-24T16:59:37.371Z,99503.97
2023-03-24T17:02:06.048Z,99516.75
2023-03-24T17:04:35.370Z,99516.13
2023-03-24T17:07:03.134Z,99509.41
2023-03-24T17:09:32.218Z,99520.44
2023-03-24T17:12:02.303Z,99524.28
2023-03-24T17:14:31.235Z,99525.38
2023-03-24T17:16:59.671Z,99537.22
2023-03-24T17:19:27.367Z,99529.53
2023-03-24T17:22:00.646Z,99539.59
2023-03-24T17:24:28.728Z,99538.06
2023-03-24T17:26:56.597Z,99539.22
2023-03-24T17:29:25.545Z,99530.56
2023-03-24T17:31:54.450Z,99545.94
2023-03-24T17:34:22.538Z,99544.34
2023-03-24T17:36:51.135Z,99544.47
2023-03-24T17:39:21.049Z,99552.53
2023-03-24T17:41:48.687Z,99554.47
2023-03-24T17:44:16.496Z,99551.03
2023-03-24T17:46:45.891Z,99556.44
2023-03-24T17:49:13.550Z,99563.69
2023-03-24T17:51:41.172Z,99561.06
2023-03-24T17:54:10.349Z,99561.16
2023-03-24T17:56:38.013Z,99560.34
2023-03-24T17:59:05.942Z,99567.47
2023-03-24T18:01:35.307Z,99569.31
2023-03-24T18:04:04.657Z,99569.34
2023-03-24T18:06:32.287Z,99588.03
2023-03-24T18:09:00.083Z,99589.00
2023-03-24T18:11:27.710Z,99616.47
2023-03-24T18:13:55.483Z,99611.97
2023-03-24T18:16:25.183Z,99617.34
2023-03-24T18:18:53.112Z,99620.13
2023-03-24T18:21:22.605Z,99604.41
2023-03-24T18:23:50.292Z,99605.47
2023-03-24T18:26:18.976Z,99605.63
2023-03-24T18:28:46.927Z,99608.50
2023-03-24T18:31:18.711Z,99612.22
2023-03-24T18:33:46.818Z,99609.75
2023-03-24T18:36:16.309Z,99617.81
2023-03-24T18:38:46.665Z,99619.81
2023-03-24T18:41:16.785Z,99646.53
2023-03-24T18:43:47.549Z,99655.59
2023-03-24T18:46:16.123Z,99661.94
2023-03-24T18:48:44.271Z,99670.91
2023-03-24T18:51:13.084Z,99674.50
2023-03-24T18:53:41.368Z,99673.69
2023-03-24T18:56:11.509Z,99672.81
2023-03-24T18:58:39.353Z,99676.44
2023-03-24T19:01:10.175Z,99684.44
2023-03-24T19:03:39.354Z,99679.16
2023-03-24T19:06:08.313Z,99679.22
2023-03-24T19:08:38.200Z,99667.78
2023-03-24T19:11:06.695Z,99641.38
2023-03-24T19:13:36.142Z,99652.13
2023-03-24T19:16:04.092Z,99663.81
2023-03-24T19:18:31.973Z,99673.69
2023-03-24T19:21:02.043Z,99693.34
2023-03-24T19:23:30.752Z,99697.00
2023-03-24T19:25:58.448Z,99703.28
2023-03-24T19:28:29.232Z,99701.63
2023-03-24T19:30:59.466Z,99707.00
2023-03-24T19:33:27.485Z,99700.06
2023-03-24T19:35:55.338Z,99680.69
2023-03-24T19:38:24.164Z,99665.78
2023-03-24T19:40:52.762Z,99642.00
2023-03-24T19:43:24.324Z,99617.34
2023-03-24T19:45:56.362Z,99621.03
2023-03-24T19:48:25.431Z,99609.66
2023-03-24T19:50:55.068Z,99606.22
2023-03-24T19:53:23.778Z,99612.53
2023-03-24T19:55:51.923Z,99624.13
2023-03-24T19:58:19.922Z,99640.09
2023-03-24T20:00:47.558Z,99652.53
2023-03-24T20:03:15.534Z,99658.81
2023-03-24T20:05:44.579Z,99650.91
2023-03-24T20:08:12.200Z,99647.41
2023-03-24T20:10:40.794Z,99650.09
2023-03-24T20:13:09.108Z,99645.72
2023-03-24T20:15:36.815Z,99637.78
2023-03-24T20:18:05.229Z,99638.72
2023-03-24T20:20:32.994Z,99640.53
2023-03-24T20:23:02.030Z,99645.88
2023-03-24T20:25:29.802Z,99648.56
2023-03-24T20:27:57.408Z,99649.53
2023-03-24T20:30:28.137Z,99655.75
2023-03-24T20:32:57.613Z,99661.13
2023-03-24T20:35:25.684Z,99656.78
2023-03-24T20:37:53.380Z,99669.22
2023-03-24T20:40:24.602Z,99664.91
2023-03-24T20:42:52.465Z,99660.56
2023-03-24T20:45:20.671Z,99663.31
2023-03-24T20:47:48.457Z,99662.53
2023-03-24T20:50:16.364Z,99665.28
2023-03-24T20:52:44.067Z,99663.59
2023-03-24T20:55:12.433Z,99661.03
2023-03-24T20:57:41.471Z,99656.69
2023-03-24T21:00:13.446Z,99642.63
2023-03-24T21:02:42.225Z,99652.38
2023-03-24T21:05:10.796Z,99663.00
2023-03-24T21:07:42.378Z,99669.19
2023-03-24T21:10:10.982Z,99677.13
2023-03-24T21:12:53.433Z,99677.19
2023-03-24T21:15:25.025Z,99661.38
2023-03-24T21:17:53.248Z,99656.06
2023-03-24T21:20:21.218Z,99656.13
2023-03-24T21:22:54.959Z,99654.41
2023-03-24T21:25:24.018Z,99652.72
2023-03-24T21:27:52.111Z,99656.31
2023-03-24T21:30:20.236Z,99660.75
2023-03-24T21:32:51.042Z,99663.44
2023-03-24T21:35:20.076Z,99671.41
2023-03-24T21:37:48.637Z,99667.91
2023-03-24T21:40:18.749Z,99668.00
2023-03-24T21:42:49.577Z,99666.22
2023-03-24T21:45:18.903Z,99660.97
2023-03-24T21:47:47.939Z,99662.75
2023-03-24T21:50:23.146Z,99658.34
2023-03-24T21:52:52.051Z,99652.19
2023-03-24T21:55:21.498Z,99651.38
2023-03-24T21:57:51.875Z,99640.88
2023-03-24T22:00:23.241Z,99641.81
2023-03-24T22:02:52.768Z,99637.50
2023-03-24T22:05:23.990Z,99638.44
2023-03-24T22:07:52.798Z,99631.38
2023-03-24T22:10:22.785Z,99633.16
2023-03-24T22:12:51.155Z,99618.19
2023-03-24T22:15:19.368Z,99626.97
2023-03-24T22:17:47.147Z,99622.59
2023-03-24T22:20:16.775Z,99620.84
2023-03-24T22:22:45.948Z,99620.84
2023-03-24T22:25:16.213Z,99612.91
2023-03-24T22:27:43.943Z,99609.41
2023-03-24T22:30:14.218Z,99612.06
2023-03-24T22:32:42.590Z,99614.72
2023-03-24T22:35:11.028Z,99611.22
2023-03-24T22:37:38.786Z,99606.84
2023-03-24T22:40:11.004Z,99606.84
2023-03-24T22:42:38.625Z,99616.50
2023-03-24T22:45:07.431Z,99605.94
2023-03-24T22:47:36.223Z,99617.41
2023-03-24T22:50:04.180Z,99621.78
2023-03-24T22:52:32.480Z,99620.94
2023-03-24T22:55:00.235Z,99618.31
2023-03-24T22:57:29.917Z,99620.09
2023-03-24T23:00:01.672Z,99621.00
2023-03-24T23:02:29.694Z,99623.66
2023-03-24T23:04:57.641Z,99613.09
2023-03-24T23:07:28.295Z,99622.81
2023-03-24T23:09:59.412Z,99614.88
2023-03-24T23:12:29.247Z,99606.97
2023-03-24T23:14:56.937Z,99594.69
2023-03-24T23:17:25.191Z,99591.19
2023-03-24T23:19:53.304Z,99592.06
2023-03-24T23:22:21.744Z,99596.47
2023-03-24T23:24:53.673Z,99585.03
2023-03-24T23:27:34.244Z,99592.06
2023-03-24T23:30:01.949Z,99590.34
2023-03-24T23:32:32.509Z,99586.84
2023-03-24T23:35:02.676Z,99584.22
2023-03-24T23:37:32.079Z,99586.00
2023-03-24T23:40:02.304Z,99581.59
2023-03-24T23:42:33.402Z,99581.59
2023-03-24T23:45:01.307Z,99587.78
2023-03-24T23:47:32.561Z,99595.72
2023-03-24T23:50:02.657Z,99587.78
2023-03-24T23:52:30.322Z,99593.06
2023-03-24T23:54:58.481Z,99598.38
2023-03-24T23:57:26.162Z,99597.50
2023-03-24T23:59:55.207Z,99591.34
